createdAt,value
2023-03-30T00:01:43.056Z,100623.06
2023-03-30T00:06:45.985Z,100610.34
2023-03-30T00:11:49.177Z,100604.97
2023-03-30T00:16:53.498Z,100605.19
2023-03-30T00:21:56.772Z,100603.53
2023-03-30T00:26:59.954Z,100597.56
2023-03-30T00:32:03.573Z,100594.78
2023-03-30T00:37:06.462Z,100592.88
2023-03-30T00:42:17.781Z,100580.19
2023-03-30T00:47:21.466Z,100582.94
2023-03-30T00:52:25.110Z,100583.06
2023-03-30T00:57:28.752Z,100563.69
2023-03-30T01:02:39.743Z,100557.44
2023-03-30T01:07:46.510Z,100560.09
2023-03-30T01:12:50.057Z,100557.72
2023-03-30T01:18:08.962Z,100543.94
2023-03-30T01:23:27.432Z,100531.50
2023-03-30T01:28:49.107Z,100528.06
2023-03-30T01:34:57.840Z,100523.03
2023-03-30T01:40:17.395Z,100521.47
2023-03-30T01:45:26.259Z,100525.75
2023-03-30T01:51:06.203Z,100524.47
2023-03-30T01:56:51.879Z,100525.22
2023-03-30T02:02:04.328Z,100526.56
2023-03-30T02:07:19.325Z,100529.81
2023-03-30T02:12:23.916Z,100519.56
2023-03-30T02:17:30.872Z,100514.88
2023-03-30T02:22:34.190Z,100512.59
2023-03-30T02:27:38.644Z,100512.00
2023-03-30T02:32:52.129Z,100515.47
2023-03-30T02:38:20.144Z,100519.66
2023-03-30T02:44:03.828Z,100507.63
2023-03-30T02:49:25.898Z,100544.84
2023-03-30T02:54:54.225Z,100523.34
2023-03-30T03:00:24.716Z,100516.94
2023-03-30T03:05:28.836Z,100510.09
2023-03-30T03:10:36.314Z,100527.34
2023-03-30T03:15:39.440Z,100513.47
2023-03-30T03:20:42.956Z,100535.28
2023-03-30T03:25:45.926Z,100519.72
2023-03-30T03:30:52.167Z,100534.44
2023-03-30T03:35:55.636Z,100527.06
2023-03-30T03:40:59.809Z,100520.28
2023-03-30T03:46:03.229Z,100518.06
2023-03-30T03:51:07.163Z,100514.13
2023-03-30T03:56:11.657Z,100507.00
2023-03-30T04:01:15.409Z,100510.69
2023-03-30T04:06:18.493Z,100514.25
2023-03-30T04:11:22.360Z,100508.78
2023-03-30T04:16:25.474Z,100504.38
2023-03-30T04:21:29.956Z,100503.41
2023-03-30T04:26:32.998Z,100506.25
2023-03-30T04:31:38.325Z,100502.28
2023-03-30T04:36:44.446Z,100496.19
2023-03-30T04:41:47.905Z,100486.31
2023-03-30T04:46:50.992Z,100490.03
2023-03-30T04:51:54.748Z,100489.84
2023-03-30T04:56:57.738Z,100482.00
2023-03-30T05:02:01.012Z,100478.44
2023-03-30T05:07:04.870Z,100477.97
2023-03-30T05:12:08.149Z,100486.69
2023-03-30T05:17:11.736Z,100472.34
2023-03-30T05:22:16.380Z,100486.09
2023-03-30T05:27:20.045Z,100468.03
2023-03-30T05:32:23.162Z,100473.63
2023-03-30T05:37:26.675Z,100471.53
2023-03-30T05:42:29.608Z,100476.41
2023-03-30T05:47:32.669Z,100466.34
2023-03-30T05:52:35.618Z,100461.34
2023-03-30T05:57:38.665Z,100457.31
2023-03-30T06:02:41.800Z,100452.19
2023-03-30T06:07:45.861Z,100457.88
2023-03-30T06:12:48.812Z,100456.78
2023-03-30T06:17:52.922Z,100463.09
2023-03-30T06:22:56.536Z,100446.44
2023-03-30T06:27:59.531Z,100435.34
2023-03-30T06:33:02.552Z,100429.56
2023-03-30T06:38:05.640Z,100431.13
2023-03-30T06:43:18.373Z,100424.88
2023-03-30T06:48:24.057Z,100433.78
2023-03-30T06:53:27.124Z,100427.09
2023-03-30T06:58:30.756Z,100425.56
2023-03-30T07:03:33.845Z,100431.28
2023-03-30T07:08:37.295Z,100427.66
2023-03-30T07:13:40.832Z,100423.22
2023-03-30T07:18:43.784Z,100403.88
2023-03-30T07:23:46.750Z,100415.97
2023-03-30T07:28:49.732Z,100419.59
2023-03-30T07:33:53.041Z,100418.84
2023-03-30T07:38:58.500Z,100409.72
2023-03-30T07:44:01.800Z,100418.22
2023-03-30T07:49:04.580Z,100421.59
2023-03-30T07:54:10.340Z,100410.94
2023-03-30T07:59:13.665Z,100421.00
2023-03-30T08:04:18.250Z,100411.81
2023-03-30T08:09:21.451Z,100408.84
2023-03-30T08:14:26.556Z,100414.59
2023-03-30T08:19:29.587Z,100403.47
2023-03-30T08:24:33.073Z,100399.72
2023-03-30T08:29:36.048Z,100402.13
2023-03-30T08:34:39.410Z,100404.19
2023-03-30T08:39:42.501Z,100391.00
2023-03-30T08:44:54.155Z,100409.22
2023-03-30T08:50:34.481Z,100403.88
2023-03-30T08:56:00.884Z,100390.44
2023-03-30T09:01:07.425Z,100388.72
2023-03-30T09:06:26.819Z,100375.78
2023-03-30T09:11:37.128Z,100373.97
2023-03-30T09:16:56.052Z,100381.47
2023-03-30T09:22:03.797Z,100358.16
2023-03-30T09:27:41.359Z,100353.41
2023-03-30T09:33:00.263Z,100344.00
2023-03-30T09:38:04.307Z,100332.56
2023-03-30T09:43:19.287Z,100331.25
2023-03-30T09:48:22.108Z,100332.19
2023-03-30T09:53:29.297Z,100336.63
2023-03-30T09:58:34.627Z,100330.03
2023-03-30T10:03:38.060Z,100322.47
2023-03-30T10:08:52.233Z,100321.31
2023-03-30T10:13:55.211Z,100313.03
2023-03-30T10:19:04.934Z,100301.47
2023-03-30T10:24:23.379Z,100299.47
2023-03-30T10:29:29.624Z,100290.78
2023-03-30T10:34:46.260Z,100289.00
2023-03-30T10:39:51.236Z,100263.97
2023-03-30T10:45:06.793Z,100256.41
2023-03-30T10:50:12.803Z,100254.75
2023-03-30T10:55:38.896Z,100251.09
2023-03-30T11:01:26.720Z,100235.09
2023-03-30T11:06:40.110Z,100234.94
2023-03-30T11:11:56.424Z,100235.94
2023-03-30T11:17:10.753Z,100229.50
2023-03-30T11:22:33.430Z,100239.66
2023-03-30T11:27:48.273Z,100207.63
2023-03-30T11:33:08.262Z,100215.34
2023-03-30T11:38:57.136Z,100210.06
2023-03-30T11:44:00.123Z,100202.19
2023-03-30T11:49:33.463Z,100194.78
2023-03-30T11:55:08.358Z,100191.09
2023-03-30T12:00:34.653Z,100187.91
2023-03-30T12:05:53.325Z,100169.75
2023-03-30T12:11:12.163Z,100161.97
2023-03-30T12:16:29.334Z,100140.19
2023-03-30T12:21:38.229Z,100125.03
2023-03-30T12:26:43.780Z,100109.03
2023-03-30T12:32:03.738Z,100111.63
2023-03-30T12:37:35.013Z,100103.69
2023-03-30T12:42:46.937Z,100083.91
2023-03-30T12:48:17.079Z,100080.97
2023-03-30T12:53:31.776Z,100075.09
2023-03-30T12:59:31.162Z,100065.81
2023-03-30T13:04:40.555Z,100068.47
2023-03-30T13:10:06.543Z,100066.41
2023-03-30T13:15:42.366Z,100065.69
2023-03-30T13:20:48.299Z,100060.06
2023-03-30T13:26:39.760Z,100057.34
2023-03-30T13:32:12.955Z,100044.41
2023-03-30T13:37:51.722Z,100043.13
2023-03-30T13:43:17.084Z,100035.72
2023-03-30T13:48:41.816Z,100025.69
2023-03-30T13:53:57.019Z,100016.63
2023-03-30T13:59:07.610Z,99994.28
2023-03-30T14:04:13.837Z,99995.56
2023-03-30T14:09:26.460Z,99974.31
2023-03-30T14:14:30.117Z,99962.63
2023-03-30T14:19:37.000Z,99954.88
2023-03-30T14:24:40.029Z,99944.03
2023-03-30T14:29:49.700Z,99933.13
2023-03-30T14:34:54.687Z,99921.94
2023-03-30T14:39:57.757Z,99906.28
2023-03-30T14:45:01.241Z,99894.13
2023-03-30T14:50:08.865Z,99883.66
2023-03-30T14:55:24.121Z,99878.75
2023-03-30T15:00:46.095Z,99865.03
2023-03-30T15:05:49.134Z,99875.72
2023-03-30T15:10:58.653Z,99866.47
2023-03-30T15:16:02.521Z,99863.53
2023-03-30T15:21:07.976Z,99871.53
2023-03-30T15:26:12.683Z,99876.22
2023-03-30T15:31:16.529Z,99886.72
2023-03-30T15:36:26.795Z,99888.50
2023-03-30T15:42:04.315Z,99885.56
2023-03-30T15:47:17.977Z,99911.03
2023-03-30T15:52:34.777Z,99922.81
2023-03-30T15:57:46.118Z,99895.69
2023-03-30T16:02:59.356Z,99892.78
2023-03-30T16:08:02.580Z,99883.19
2023-03-30T16:13:07.185Z,99881.91
2023-03-30T16:18:12.481Z,99880.44
2023-03-30T16:23:15.498Z,99861.06
2023-03-30T16:28:18.963Z,99841.75
2023-03-30T16:33:21.950Z,99834.75
2023-03-30T16:38:25.486Z,99843.38
2023-03-30T16:43:28.536Z,99848.78
2023-03-30T16:48:31.567Z,99862.81
2023-03-30T16:53:34.650Z,99859.47
2023-03-30T16:58:37.954Z,99866.56
2023-03-30T17:03:41.305Z,99875.22
2023-03-30T17:08:44.861Z,99877.59
2023-03-30T17:13:49.071Z,99872.97
2023-03-30T17:18:52.066Z,99880.81
2023-03-30T17:23:55.328Z,99863.75
2023-03-30T17:28:58.275Z,99845.34
2023-03-30T17:34:01.333Z,99852.81
2023-03-30T17:39:05.055Z,99835.75
2023-03-30T17:44:08.241Z,99843.38
2023-03-30T17:49:17.848Z,99836.59
2023-03-30T17:54:20.921Z,99838.28
2023-03-30T17:59:23.876Z,99823.69
2023-03-30T18:04:27.821Z,99836.47
2023-03-30T18:09:31.333Z,99839.69
2023-03-30T18:14:34.405Z,99858.59
2023-03-30T18:19:37.327Z,99874.06
2023-03-30T18:24:41.137Z,99917.03
2023-03-30T18:29:47.133Z,99927.31
2023-03-30T18:34:50.071Z,99924.00
2023-03-30T18:39:53.487Z,99916.72
2023-03-30T18:44:56.565Z,99925.00
2023-03-30T18:49:59.557Z,99916.72
2023-03-30T18:55:02.951Z,99914.75
2023-03-30T19:00:21.569Z,99898.19
2023-03-30T19:05:27.448Z,99885.91
2023-03-30T19:10:38.784Z,99839.84
2023-03-30T19:15:42.551Z,99859.09
2023-03-30T19:20:46.407Z,99847.81
2023-03-30T19:25:49.906Z,99852.97
2023-03-30T19:30:53.365Z,99841.88
2023-03-30T19:35:56.390Z,99820.53
2023-03-30T19:41:04.883Z,99824.50
2023-03-30T19:46:08.817Z,99806.44
2023-03-30T19:51:14.826Z,99805.44
2023-03-30T19:56:18.443Z,99815.38
2023-03-30T20:01:21.946Z,99814.38
2023-03-30T20:06:25.836Z,99810.44
2023-03-30T20:11:29.164Z,99809.44
2023-03-30T20:16:35.151Z,99812.41
2023-03-30T20:21:39.270Z,99802.97
2023-03-30T20:26:42.382Z,99808.44
2023-03-30T20:31:46.326Z,99785.25
2023-03-30T20:36:49.963Z,99788.06
2023-03-30T20:41:58.324Z,99799.84
2023-03-30T20:47:04.071Z,99798.84
2023-03-30T20:52:07.158Z,99804.78
2023-03-30T20:57:10.484Z,99784.59
2023-03-30T21:02:14.611Z,99764.56
2023-03-30T21:07:18.166Z,99757.44
2023-03-30T21:12:21.392Z,99740.56
2023-03-30T21:17:24.771Z,99701.81
2023-03-30T21:22:29.878Z,99741.06
2023-03-30T21:27:32.743Z,99714.59
2023-03-30T21:32:35.945Z,99715.69
2023-03-30T21:37:38.966Z,99725.13
2023-03-30T21:42:41.758Z,99727.25
2023-03-30T21:47:44.537Z,99751.44
2023-03-30T21:52:48.339Z,99761.34
2023-03-30T21:57:51.296Z,99768.63
2023-03-30T22:02:54.320Z,99753.72
2023-03-30T22:07:57.421Z,99757.03
2023-03-30T22:13:00.324Z,99761.50
2023-03-30T22:18:06.954Z,99755.06
2023-03-30T22:23:09.945Z,99755.72
2023-03-30T22:28:13.037Z,99766.13
2023-03-30T22:33:17.370Z,99756.38
2023-03-30T22:38:20.639Z,99744.66
2023-03-30T22:43:24.224Z,99738.69
2023-03-30T22:48:27.279Z,99743.16
2023-03-30T22:53:31.682Z,99743.50
2023-03-30T22:58:35.990Z,99748.09
2023-03-30T23:03:39.326Z,99737.16
2023-03-30T23:08:42.582Z,99735.69
2023-03-30T23:13:45.637Z,99734.34
2023-03-30T23:18:50.467Z,99732.03
2023-03-30T23:23:53.473Z,99737.31
2023-03-30T23:28:57.161Z,99729.88
2023-03-30T23:34:00.491Z,99727.22
2023-03-30T23:39:03.642Z,99730.53
2023-03-30T23:44:06.723Z,99734.16
2023-03-30T23:49:10.103Z,99724.06
2023-03-30T23:54:15.759Z,99717.28
2023-03-30T23:59:18.589Z,99722.88
